createdAt,value
2017-08-15T00:00:52.526Z,26.9
2017-08-15T00:01:54.656Z,26.9
2017-08-15T00:02:56.785Z,26.9
2017-08-15T00:03:58.916Z,26.9
2017-08-15T00:05:01.048Z,26.8
2017-08-15T00:06:02.857Z,26.9
2017-08-15T00:07:04.288Z,26.9
2017-08-15T00:08:06.426Z,26.9
2017-08-15T00:09:08.214Z,26.8
2017-08-15T00:10:09.681Z,26.9
2017-08-15T00:11:11.475Z,26.8
2017-08-15T00:12:13.282Z,26.8
2017-08-15T00:13:15.100Z,26.7
2017-08-15T00:14:16.546Z,26.8
2017-08-15T00:15:18.672Z,26.7
2017-08-15T00:16:20.799Z,26.8
2017-08-15T00:17:22.597Z,26.8
2017-08-15T00:18:24.726Z,26.8
2017-08-15T00:19:26.497Z,26.9
2017-08-15T00:20:28.628Z,26.7
2017-08-15T00:21:30.088Z,26.8
2017-08-15T00:22:32.219Z,26.8
2017-08-15T00:23:34.350Z,26.9
2017-08-15T00:24:36.478Z,26.7
2017-08-15T00:25:38.604Z,26.9
2017-08-15T00:26:40.735Z,26.7
2017-08-15T00:27:42.533Z,26.8
2017-08-15T00:28:44.662Z,26.8
2017-08-15T00:29:46.458Z,26.7
2017-08-15T00:30:47.925Z,26.8
2017-08-15T00:31:50.055Z,26.7
2017-08-15T00:32:51.856Z,26.7
2017-08-15T00:33:53.989Z,26.8
2017-08-15T00:34:55.763Z,26.7
2017-08-15T00:35:57.897Z,26.8
2017-08-15T00:36:59.695Z,26.9
2017-08-15T00:38:01.822Z,26.7
2017-08-15T00:39:03.467Z,26.8
2017-08-15T00:40:05.596Z,26.7
2017-08-15T00:41:07.725Z,26.8
2017-08-15T00:42:09.503Z,26.8
2017-08-15T00:43:11.280Z,26.8
2017-08-15T00:44:13.417Z,26.7
2017-08-15T00:45:15.216Z,26.8
2017-08-15T00:46:17.011Z,26.7
2017-08-15T00:47:19.142Z,26.7
2017-08-15T00:48:20.605Z,26.8
2017-08-15T00:49:22.252Z,26.8
2017-08-15T00:50:24.046Z,26.8
2017-08-15T00:51:25.513Z,26.8
2017-08-15T00:52:27.310Z,26.8
2017-08-15T00:53:29.108Z,26.8
2017-08-15T00:54:30.593Z,26.8
2017-08-15T00:55:32.428Z,26.8
2017-08-15T00:56:34.557Z,26.7
2017-08-15T00:57:36.687Z,26.8
2017-08-15T00:58:38.814Z,26.7
2017-08-15T00:59:40.612Z,26.8
2017-08-15T01:00:42.406Z,26.8
2017-08-15T01:01:44.206Z,26.8
2017-08-15T01:02:45.985Z,26.8
2017-08-15T01:03:47.760Z,26.7
2017-08-15T01:04:49.894Z,26.8
2017-08-15T01:05:51.691Z,26.7
2017-08-15T01:06:53.821Z,26.7
2017-08-15T01:07:55.646Z,26.8
2017-08-15T01:08:57.856Z,26.8
2017-08-15T01:09:59.302Z,26.7
2017-08-15T01:11:01.433Z,26.8
2017-08-15T01:12:02.571Z,26.7
2017-08-15T01:13:04.702Z,26.7
2017-08-15T01:14:05.842Z,26.7
2017-08-15T01:15:07.967Z,26.8
2017-08-15T01:16:10.096Z,26.7
2017-08-15T01:17:12.224Z,26.8
2017-08-15T01:18:14.020Z,26.7
2017-08-15T01:19:15.817Z,26.7
2017-08-15T01:20:17.616Z,26.7
2017-08-15T01:21:19.419Z,26.7
2017-08-15T01:22:21.221Z,26.7
2017-08-15T01:23:23.016Z,26.7
2017-08-15T01:24:25.148Z,26.7
2017-08-15T01:25:27.278Z,26.7
2017-08-15T01:26:29.407Z,26.7
2017-08-15T01:27:30.849Z,26.8
2017-08-15T01:28:32.289Z,26.7
2017-08-15T01:29:34.086Z,26.7
2017-08-15T01:30:36.213Z,26.7
2017-08-15T01:31:38.345Z,26.7
2017-08-15T01:32:40.474Z,26.7
2017-08-15T01:33:42.249Z,26.7
2017-08-15T01:34:44.377Z,26.7
2017-08-15T01:35:46.706Z,26.7
2017-08-15T01:36:48.499Z,26.7
2017-08-15T01:37:50.295Z,26.7
2017-08-15T01:38:52.429Z,26.7
2017-08-15T01:39:54.568Z,26.7
2017-08-15T01:40:56.698Z,26.7
2017-08-15T01:41:58.495Z,26.7
2017-08-15T01:43:00.291Z,26.7
2017-08-15T01:44:02.422Z,26.7
2017-08-15T01:45:04.550Z,26.7
2017-08-15T01:46:06.682Z,26.7
2017-08-15T01:47:08.481Z,26.7
2017-08-15T01:48:10.279Z,26.7
2017-08-15T01:49:12.407Z,26.7
2017-08-15T01:50:14.205Z,26.7
2017-08-15T01:51:16.249Z,26.7
2017-08-15T01:52:18.380Z,26.7
2017-08-15T01:53:20.177Z,26.7
2017-08-15T01:54:22.307Z,26.8
2017-08-15T01:55:24.100Z,26.7
2017-08-15T01:56:26.247Z,26.7
2017-08-15T01:57:28.373Z,26.7
2017-08-15T01:58:29.815Z,26.7
2017-08-15T01:59:31.281Z,26.7
2017-08-15T02:00:33.078Z,26.7
2017-08-15T02:01:34.879Z,26.7
2017-08-15T02:02:37.010Z,26.7
2017-08-15T02:03:38.797Z,26.6
2017-08-15T02:04:40.571Z,26.6
2017-08-15T02:05:42.344Z,26.7
2017-08-15T02:06:44.472Z,26.7
2017-08-15T02:07:46.271Z,26.8
2017-08-15T02:08:48.092Z,26.6
2017-08-15T02:09:49.892Z,26.7
2017-08-15T02:10:51.690Z,26.7
2017-08-15T02:11:53.132Z,26.7
2017-08-15T02:12:55.261Z,26.6
2017-08-15T02:13:57.035Z,26.7
2017-08-15T02:14:58.148Z,26.7
2017-08-15T02:16:00.273Z,26.7
2017-08-15T02:17:02.047Z,26.6
2017-08-15T02:18:03.846Z,26.7
2017-08-15T02:19:05.285Z,26.6
2017-08-15T02:20:07.078Z,26.7
2017-08-15T02:21:08.518Z,26.7
2017-08-15T02:22:10.310Z,26.6
2017-08-15T02:23:12.106Z,26.7
2017-08-15T02:24:13.906Z,26.6
2017-08-15T02:25:15.346Z,26.6
2017-08-15T02:26:17.476Z,26.6
2017-08-15T02:27:19.268Z,26.6
2017-08-15T02:28:21.062Z,26.7
2017-08-15T02:29:22.855Z,26.7
2017-08-15T02:30:23.962Z,26.6
2017-08-15T02:31:26.094Z,26.7
2017-08-15T02:32:27.869Z,26.7
2017-08-15T02:33:29.666Z,26.6
2017-08-15T02:34:31.112Z,26.7
2017-08-15T02:35:32.906Z,26.7
2017-08-15T02:36:34.684Z,26.6
2017-08-15T02:37:36.457Z,26.6
2017-08-15T02:38:38.584Z,26.7
2017-08-15T02:39:40.364Z,26.7
2017-08-15T02:40:42.496Z,26.7
2017-08-15T02:41:44.289Z,26.7
2017-08-15T02:42:46.419Z,26.7
2017-08-15T02:43:48.547Z,26.7
2017-08-15T02:44:50.345Z,26.6
2017-08-15T02:45:52.141Z,26.7
2017-08-15T02:46:53.580Z,26.7
2017-08-15T02:47:55.354Z,26.7
2017-08-15T02:48:57.484Z,26.7
2017-08-15T02:49:59.613Z,26.6
2017-08-15T02:51:01.740Z,26.6
2017-08-15T02:52:03.206Z,26.6
2017-08-15T02:53:05.536Z,26.7
2017-08-15T02:54:07.664Z,26.7
2017-08-15T02:55:09.795Z,26.7
2017-08-15T02:56:11.924Z,26.6
2017-08-15T02:57:13.722Z,26.7
2017-08-15T02:58:15.520Z,26.6
2017-08-15T02:59:17.316Z,26.6
2017-08-15T03:00:18.789Z,26.6
2017-08-15T03:01:20.916Z,26.6
2017-08-15T03:02:23.045Z,26.6
2017-08-15T03:03:24.818Z,26.6
2017-08-15T03:04:26.620Z,26.6
2017-08-15T03:05:28.080Z,26.7
2017-08-15T03:06:30.225Z,26.7
2017-08-15T03:07:32.353Z,26.6
2017-08-15T03:08:34.353Z,26.7
2017-08-15T03:09:36.146Z,26.6
2017-08-15T03:10:37.587Z,26.6
2017-08-15T03:11:39.384Z,26.7
2017-08-15T03:12:41.512Z,26.7
2017-08-15T03:13:43.307Z,26.7
2017-08-15T03:14:45.107Z,26.6
2017-08-15T03:15:46.904Z,26.6
2017-08-15T03:16:49.033Z,26.6
2017-08-15T03:17:50.828Z,26.6
2017-08-15T03:18:52.298Z,26.7
2017-08-15T03:19:54.094Z,26.6
2017-08-15T03:20:55.893Z,26.6
2017-08-15T03:21:57.335Z,26.6
2017-08-15T03:22:59.130Z,26.6
2017-08-15T03:24:00.927Z,26.6
2017-08-15T03:25:02.704Z,26.7
2017-08-15T03:26:04.479Z,26.6
2017-08-15T03:27:05.926Z,26.6
2017-08-15T03:28:07.721Z,26.7
2017-08-15T03:29:09.410Z,26.7
2017-08-15T03:30:11.203Z,26.7
2017-08-15T03:31:12.320Z,26.6
2017-08-15T03:32:13.772Z,26.6
2017-08-15T03:33:15.900Z,26.7
2017-08-15T03:34:17.343Z,26.6
2017-08-15T03:35:19.472Z,26.6
2017-08-15T03:36:21.246Z,26.6
2017-08-15T03:37:22.688Z,26.6
2017-08-15T03:38:24.150Z,26.7
2017-08-15T03:39:25.257Z,26.6
2017-08-15T03:40:27.080Z,26.7
2017-08-15T03:41:29.237Z,26.6
2017-08-15T03:42:30.666Z,26.7
2017-08-15T03:43:32.483Z,26.6
2017-08-15T03:44:34.480Z,26.6
2017-08-15T03:45:35.982Z,26.7
2017-08-15T03:46:37.088Z,26.6
2017-08-15T03:47:38.193Z,26.7
2017-08-15T03:48:39.970Z,26.6
2017-08-15T03:49:42.099Z,26.7
2017-08-15T03:50:43.912Z,26.6
2017-08-15T03:51:45.701Z,26.6
2017-08-15T03:52:47.830Z,26.6
2017-08-15T03:53:49.959Z,26.7
2017-08-15T03:54:52.087Z,26.6
2017-08-15T03:55:53.897Z,26.6
2017-08-15T03:56:55.668Z,26.6
2017-08-15T03:57:57.797Z,26.6
2017-08-15T03:58:59.926Z,26.6
2017-08-15T04:00:02.056Z,26.6
2017-08-15T04:01:04.186Z,26.6
2017-08-15T04:02:05.627Z,26.7
2017-08-15T04:03:07.424Z,26.6
2017-08-15T04:04:08.872Z,26.6
2017-08-15T04:05:11.035Z,26.6
2017-08-15T04:06:12.480Z,26.7
2017-08-15T04:07:13.614Z,26.6
2017-08-15T04:08:15.391Z,26.6
2017-08-15T04:09:16.495Z,26.6
2017-08-15T04:10:18.470Z,26.6
2017-08-15T04:11:19.584Z,26.6
2017-08-15T04:12:21.713Z,26.6
2017-08-15T04:13:23.510Z,26.6
2017-08-15T04:14:25.302Z,26.6
2017-08-15T04:15:26.765Z,26.6
2017-08-15T04:16:28.545Z,26.6
2017-08-15T04:17:29.986Z,26.7
2017-08-15T04:18:30.758Z,26.6
2017-08-15T04:19:32.888Z,26.6
2017-08-15T04:20:34.688Z,26.6
2017-08-15T04:21:36.820Z,26.6
2017-08-15T04:22:38.947Z,26.6
2017-08-15T04:23:40.722Z,26.6
2017-08-15T04:24:42.852Z,26.6
2017-08-15T04:25:45.180Z,26.6
2017-08-15T04:26:46.975Z,26.6
2017-08-15T04:27:48.749Z,26.7
2017-08-15T04:28:50.552Z,26.7
2017-08-15T04:29:52.682Z,26.7
2017-08-15T04:30:54.132Z,26.7
2017-08-15T04:31:55.930Z,26.7
2017-08-15T04:32:58.062Z,26.6
2017-08-15T04:33:59.857Z,26.6
2017-08-15T04:35:01.990Z,26.6
2017-08-15T04:36:03.093Z,26.6
2017-08-15T04:37:05.228Z,26.6
2017-08-15T04:38:07.003Z,26.6
2017-08-15T04:39:08.799Z,26.6
2017-08-15T04:40:10.928Z,26.7
2017-08-15T04:41:12.721Z,26.6
2017-08-15T04:42:14.859Z,26.7
2017-08-15T04:43:16.326Z,26.6
2017-08-15T04:44:18.458Z,26.7
2017-08-15T04:45:20.599Z,26.6
2017-08-15T04:46:22.648Z,26.6
2017-08-15T04:47:24.780Z,26.7
2017-08-15T04:48:26.222Z,26.6
2017-08-15T04:49:28.026Z,26.6
2017-08-15T04:50:29.822Z,26.7
2017-08-15T04:51:31.287Z,26.6
2017-08-15T04:52:33.083Z,26.6
2017-08-15T04:53:35.218Z,26.6
2017-08-15T04:54:36.331Z,26.7
2017-08-15T04:55:37.777Z,26.6
2017-08-15T04:56:39.902Z,26.6
2017-08-15T04:57:41.685Z,26.6
2017-08-15T04:58:43.134Z,26.6
2017-08-15T04:59:44.605Z,26.7
2017-08-15T05:00:46.051Z,26.6
2017-08-15T05:01:48.180Z,26.6
2017-08-15T05:02:49.980Z,26.6
2017-08-15T05:03:51.777Z,26.6
2017-08-15T05:04:53.216Z,26.6
2017-08-15T05:05:55.008Z,26.6
2017-08-15T05:06:56.472Z,26.7
2017-08-15T05:07:58.595Z,26.6
2017-08-15T05:09:00.390Z,26.6
2017-08-15T05:10:02.190Z,26.6
2017-08-15T05:11:03.298Z,26.7
2017-08-15T05:12:05.095Z,26.7
2017-08-15T05:13:06.891Z,26.7
2017-08-15T05:14:08.688Z,26.6
2017-08-15T05:15:10.481Z,26.6
2017-08-15T05:16:12.283Z,26.7
2017-08-15T05:17:14.412Z,26.6
2017-08-15T05:18:16.215Z,26.6
2017-08-15T05:19:18.346Z,26.7
2017-08-15T05:20:20.474Z,26.7
2017-08-15T05:21:22.635Z,26.7
2017-08-15T05:22:23.970Z,26.7
2017-08-15T05:23:25.763Z,26.6
2017-08-15T05:24:26.899Z,26.7
2017-08-15T05:25:29.029Z,26.7
2017-08-15T05:26:30.492Z,26.7
2017-08-15T05:27:32.625Z,26.7
2017-08-15T05:28:34.403Z,26.7
2017-08-15T05:29:35.866Z,26.7
2017-08-15T05:30:37.663Z,26.7
2017-08-15T05:31:39.461Z,26.7
2017-08-15T05:32:40.766Z,26.7
2017-08-15T05:33:42.567Z,26.8
2017-08-15T05:34:44.365Z,26.8
2017-08-15T05:35:46.498Z,26.9
2017-08-15T05:36:48.630Z,26.8
2017-08-15T05:37:50.425Z,26.8
2017-08-15T05:38:52.223Z,26.8
2017-08-15T05:39:52.995Z,26.9
2017-08-15T05:40:54.795Z,26.8
2017-08-15T05:41:56.237Z,26.9
2017-08-15T05:42:57.707Z,26.9
2017-08-15T05:43:59.848Z,26.9
2017-08-15T05:45:01.293Z,27
2017-08-15T05:46:03.093Z,27
2017-08-15T05:47:05.224Z,27
2017-08-15T05:48:07.025Z,27
2017-08-15T05:49:08.827Z,27.1
2017-08-15T05:50:10.610Z,27.1
2017-08-15T05:51:12.405Z,27.1
2017-08-15T05:52:14.202Z,27.1
2017-08-15T05:53:15.524Z,27
2017-08-15T05:54:17.654Z,27.1
2017-08-15T05:55:19.456Z,27.1
2017-08-15T05:56:20.909Z,27.2
2017-08-15T05:57:23.040Z,27.1
2017-08-15T05:58:24.485Z,27.2
2017-08-15T05:59:26.616Z,27.2
2017-08-15T06:00:28.410Z,27.2
2017-08-15T06:01:30.541Z,27.2
2017-08-15T06:02:31.986Z,27.3
2017-08-15T06:03:34.319Z,27.2
2017-08-15T06:04:36.451Z,27.3
2017-08-15T06:05:38.593Z,27.3
2017-08-15T06:06:40.395Z,27.3
2017-08-15T06:07:42.527Z,27.3
2017-08-15T06:08:44.303Z,27.3
2017-08-15T06:09:45.751Z,27.3
2017-08-15T06:10:47.879Z,27.3
2017-08-15T06:11:48.999Z,27.3
2017-08-15T06:12:50.464Z,27.3
2017-08-15T06:13:52.410Z,27.3
2017-08-15T06:14:53.854Z,27.3
2017-08-15T06:15:55.650Z,27.4
2017-08-15T06:16:57.423Z,27.3
2017-08-15T06:17:59.556Z,27.3
2017-08-15T06:19:01.687Z,27.3
2017-08-15T06:20:03.828Z,27.3
2017-08-15T06:21:05.628Z,27.4
2017-08-15T06:22:07.758Z,27.4
2017-08-15T06:23:09.766Z,27.4
2017-08-15T06:24:11.899Z,27.4
2017-08-15T06:25:13.366Z,27.5
2017-08-15T06:26:14.831Z,27.4
2017-08-15T06:27:16.963Z,27.5
2017-08-15T06:28:19.098Z,27.4
2017-08-15T06:29:20.972Z,27.4
2017-08-15T06:30:22.081Z,27.4
2017-08-15T06:31:23.882Z,27.3
2017-08-15T06:32:25.683Z,27.5
2017-08-15T06:33:27.482Z,27.4
2017-08-15T06:34:29.262Z,27.3
2017-08-15T06:35:31.038Z,27.4
2017-08-15T06:36:32.848Z,27.4
2017-08-15T06:37:34.638Z,27.4
2017-08-15T06:38:36.435Z,27.4
2017-08-15T06:39:38.567Z,27.4
2017-08-15T06:40:40.367Z,27.5
2017-08-15T06:41:42.164Z,27.4
2017-08-15T06:42:43.615Z,27.4
2017-08-15T06:43:45.414Z,27.4
2017-08-15T06:44:47.546Z,27.5
2017-08-15T06:45:48.991Z,27.4
2017-08-15T06:46:51.127Z,27.4
2017-08-15T06:47:52.947Z,27.4
2017-08-15T06:48:54.773Z,27.5
2017-08-15T06:49:56.348Z,27.4
2017-08-15T06:50:57.815Z,27.4
2017-08-15T06:51:59.594Z,27.4
2017-08-15T06:53:01.729Z,27.5
2017-08-15T06:54:03.173Z,27.5
2017-08-15T06:55:04.996Z,27.5
2017-08-15T06:56:07.125Z,27.5
2017-08-15T06:57:09.266Z,27.4
2017-08-15T06:58:11.035Z,27.5
2017-08-15T06:59:12.809Z,27.5
2017-08-15T07:00:14.282Z,27.4
2017-08-15T07:01:16.057Z,27.4
2017-08-15T07:02:18.191Z,27.4
2017-08-15T07:03:20.322Z,27.5
2017-08-15T07:04:22.452Z,27.5
2017-08-15T07:05:24.229Z,27.5
2017-08-15T07:06:26.027Z,27.5
2017-08-15T07:07:28.160Z,27.5
2017-08-15T07:08:29.972Z,27.5
2017-08-15T07:09:31.773Z,27.4
2017-08-15T07:10:33.903Z,27.5
2017-08-15T07:11:35.680Z,27.5
2017-08-15T07:12:37.497Z,27.4
2017-08-15T07:13:39.303Z,27.4
2017-08-15T07:14:41.433Z,27.4
2017-08-15T07:15:43.613Z,27.4
2017-08-15T07:16:45.092Z,27.4
2017-08-15T07:17:46.865Z,27.5
2017-08-15T07:18:48.336Z,27.4
2017-08-15T07:19:50.462Z,27.4
2017-08-15T07:20:51.909Z,27.5
2017-08-15T07:21:53.381Z,27.5
2017-08-15T07:22:54.845Z,27.4
2017-08-15T07:23:56.311Z,27.5
2017-08-15T07:24:57.784Z,27.5
2017-08-15T07:25:59.918Z,27.4
2017-08-15T07:27:01.726Z,27.4
2017-08-15T07:28:03.857Z,27.5
2017-08-15T07:29:05.986Z,27.5
2017-08-15T07:30:07.433Z,27.5
2017-08-15T07:31:09.214Z,27.4
2017-08-15T07:32:11.016Z,27.5
2017-08-15T07:33:12.460Z,27.6
2017-08-15T07:34:14.590Z,27.5
2017-08-15T07:35:16.040Z,27.5
2017-08-15T07:36:17.838Z,27.5
2017-08-15T07:37:19.977Z,27.5
2017-08-15T07:38:22.109Z,27.5
2017-08-15T07:39:23.914Z,27.5
2017-08-15T07:40:25.714Z,27.6
2017-08-15T07:41:27.174Z,27.6
2017-08-15T07:42:29.304Z,27.6
2017-08-15T07:43:30.771Z,27.6
2017-08-15T07:44:32.216Z,27.5
2017-08-15T07:45:33.689Z,27.6
2017-08-15T07:46:35.820Z,27.6
2017-08-15T07:47:37.288Z,27.5
2017-08-15T07:48:39.470Z,27.5
2017-08-15T07:49:41.253Z,27.5
2017-08-15T07:50:43.059Z,27.5
2017-08-15T07:51:44.860Z,27.6
2017-08-15T07:52:46.634Z,27.5
2017-08-15T07:53:48.082Z,27.6
2017-08-15T07:54:49.881Z,27.6
2017-08-15T07:55:52.015Z,27.6
2017-08-15T07:56:53.815Z,27.6
2017-08-15T07:57:55.616Z,27.6
2017-08-15T07:58:57.083Z,27.6
2017-08-15T07:59:59.224Z,27.6
2017-08-15T08:01:01.348Z,27.6
2017-08-15T08:02:02.798Z,27.6
2017-08-15T08:03:04.931Z,27.6
2017-08-15T08:04:06.069Z,27.5
2017-08-15T08:05:07.185Z,27.6
2017-08-15T08:06:08.987Z,27.6
2017-08-15T08:07:11.119Z,27.6
2017-08-15T08:08:13.256Z,27.6
2017-08-15T08:09:15.386Z,27.6
2017-08-15T08:10:16.830Z,27.6
2017-08-15T08:11:18.627Z,27.6
2017-08-15T08:12:20.758Z,27.6
2017-08-15T08:13:22.917Z,27.6
2017-08-15T08:14:24.727Z,27.7
2017-08-15T08:15:26.501Z,27.6
2017-08-15T08:16:28.643Z,27.5
2017-08-15T08:17:30.442Z,27.6
2017-08-15T08:18:31.896Z,27.6
2017-08-15T08:19:34.026Z,27.6
2017-08-15T08:20:35.829Z,27.5
2017-08-15T08:21:37.627Z,27.6
2017-08-15T08:22:39.411Z,27.5
2017-08-15T08:23:41.542Z,27.6
2017-08-15T08:24:43.675Z,27.6
2017-08-15T08:25:45.478Z,27.6
2017-08-15T08:26:47.613Z,27.6
2017-08-15T08:27:49.386Z,27.6
2017-08-15T08:28:51.516Z,27.6
2017-08-15T08:29:53.415Z,27.6
2017-08-15T08:30:54.874Z,27.5
2017-08-15T08:31:56.644Z,27.6
2017-08-15T08:32:58.445Z,27.6
2017-08-15T08:34:00.622Z,27.6
2017-08-15T08:35:03.017Z,27.6
2017-08-15T08:36:08.884Z,27.6
2017-08-15T08:37:10.731Z,27.6
2017-08-15T08:38:12.792Z,27.6
2017-08-15T08:39:14.643Z,27.6
2017-08-15T08:40:16.495Z,27.6
2017-08-15T08:41:18.436Z,27.6
2017-08-15T08:42:19.587Z,27.6
2017-08-15T08:43:21.884Z,27.5
2017-08-15T08:44:23.373Z,27.6
2017-08-15T08:45:24.509Z,27.5
2017-08-15T08:46:26.461Z,27.5
2017-08-15T08:47:28.321Z,27.5
2017-08-15T08:48:30.588Z,27.6
2017-08-15T08:49:32.052Z,27.5
2017-08-15T08:50:34.186Z,27.6
2017-08-15T08:51:35.968Z,27.6
2017-08-15T08:52:38.562Z,27.6
2017-08-15T08:53:40.345Z,27.6
2017-08-15T08:54:42.143Z,27.6
2017-08-15T08:55:43.943Z,27.6
2017-08-15T08:56:46.082Z,27.6
2017-08-15T08:57:48.209Z,27.6
2017-08-15T08:58:50.389Z,27.5
2017-08-15T08:59:51.858Z,27.6
2017-08-15T09:00:53.352Z,27.6
2017-08-15T09:01:54.808Z,27.5
2017-08-15T09:02:56.255Z,27.6
2017-08-15T09:03:58.104Z,27.6
2017-08-15T09:04:59.901Z,27.6
2017-08-15T09:06:02.035Z,27.6
2017-08-15T09:07:04.168Z,27.6
2017-08-15T09:08:05.633Z,27.6
2017-08-15T09:09:07.205Z,27.6
2017-08-15T09:10:08.334Z,27.6
2017-08-15T09:11:10.481Z,27.6
2017-08-15T09:12:12.612Z,27.6
2017-08-15T09:13:14.412Z,27.6
2017-08-15T09:14:16.615Z,27.6
2017-08-15T09:15:18.753Z,27.6
2017-08-15T09:16:20.885Z,27.6
2017-08-15T09:17:23.018Z,27.6
2017-08-15T09:18:25.148Z,27.6
2017-08-15T09:19:27.288Z,27.6
2017-08-15T09:20:29.425Z,27.5
2017-08-15T09:21:31.209Z,27.5
2017-08-15T09:22:32.676Z,27.5
2017-08-15T09:23:34.474Z,27.5
2017-08-15T09:24:35.591Z,27.5
2017-08-15T09:25:37.395Z,27.6
2017-08-15T09:26:39.199Z,27.6
2017-08-15T09:27:41.342Z,27.6
2017-08-15T09:28:43.145Z,27.6
2017-08-15T09:29:45.281Z,27.6
2017-08-15T09:30:47.085Z,27.5
2017-08-15T09:31:49.221Z,27.7
2017-08-15T09:32:51.360Z,27.6
2017-08-15T09:33:53.493Z,27.6
2017-08-15T09:34:55.342Z,27.6
2017-08-15T09:35:56.795Z,27.6
2017-08-15T09:36:58.594Z,27.5
2017-08-15T09:38:00.404Z,27.6
2017-08-15T09:39:02.527Z,27.6
2017-08-15T09:40:03.977Z,27.5
2017-08-15T09:41:05.779Z,27.5
2017-08-15T09:42:06.894Z,27.6
2017-08-15T09:43:08.360Z,27.6
2017-08-15T09:44:10.493Z,27.6
2017-08-15T09:45:12.293Z,27.6
2017-08-15T09:46:13.413Z,27.6
2017-08-15T09:47:14.890Z,27.6
2017-08-15T09:48:16.690Z,27.6
2017-08-15T09:49:18.822Z,27.5
2017-08-15T09:50:20.623Z,27.6
2017-08-15T09:51:22.751Z,27.6
2017-08-15T09:52:24.223Z,27.7
2017-08-15T09:53:26.357Z,27.6
2017-08-15T09:54:28.520Z,27.6
2017-08-15T09:55:30.396Z,27.6
2017-08-15T09:56:32.527Z,27.6
2017-08-15T09:57:34.655Z,27.6
2017-08-15T09:58:36.786Z,27.6
2017-08-15T09:59:38.923Z,27.6
2017-08-15T10:00:40.727Z,27.6
2017-08-15T10:01:42.524Z,27.7
2017-08-15T10:02:44.324Z,27.6
2017-08-15T10:03:46.107Z,27.6
2017-08-15T10:04:47.252Z,27.6
2017-08-15T10:05:49.385Z,27.6
2017-08-15T10:06:51.519Z,27.7
2017-08-15T10:07:53.321Z,27.6
2017-08-15T10:08:55.454Z,27.6
2017-08-15T10:09:57.252Z,27.6
2017-08-15T10:10:59.056Z,27.6
2017-08-15T10:12:00.527Z,27.7
2017-08-15T10:13:02.339Z,27.6
2017-08-15T10:14:04.136Z,27.7
2017-08-15T10:15:05.934Z,27.7
2017-08-15T10:16:08.069Z,27.7
2017-08-15T10:17:09.870Z,27.7
2017-08-15T10:18:12.005Z,27.7
2017-08-15T10:19:14.136Z,27.7
2017-08-15T10:20:16.266Z,27.7
2017-08-15T10:21:18.401Z,27.7
2017-08-15T10:22:20.187Z,27.8
2017-08-15T10:23:21.989Z,27.8
2017-08-15T10:24:23.793Z,27.8
2017-08-15T10:25:25.594Z,27.9
2017-08-15T10:26:27.728Z,27.8
2017-08-15T10:27:28.525Z,27.9
2017-08-15T10:28:30.664Z,27.8
2017-08-15T10:29:32.462Z,27.8
2017-08-15T10:30:34.383Z,27.8
2017-08-15T10:31:36.527Z,27.8
2017-08-15T10:32:38.866Z,27.7
2017-08-15T10:33:41.148Z,27.7
2017-08-15T10:34:42.952Z,27.8
2017-08-15T10:35:44.734Z,27.7
2017-08-15T10:36:46.868Z,27.7
2017-08-15T10:37:48.711Z,27.8
2017-08-15T10:38:50.842Z,27.8
2017-08-15T10:39:53.002Z,27.8
2017-08-15T10:40:55.133Z,27.7
2017-08-15T10:41:57.266Z,27.7
2017-08-15T10:42:58.707Z,27.8
2017-08-15T10:44:00.511Z,27.8
2017-08-15T10:45:02.292Z,27.8
2017-08-15T10:46:04.150Z,27.7
2017-08-15T10:47:05.923Z,27.7
2017-08-15T10:48:07.767Z,27.8
2017-08-15T10:49:09.560Z,27.7
2017-08-15T10:50:10.695Z,27.7
2017-08-15T10:51:12.492Z,27.7
2017-08-15T10:52:13.941Z,27.7
2017-08-15T10:53:15.744Z,27.7
2017-08-15T10:54:17.542Z,27.7
2017-08-15T10:55:19.346Z,27.8
2017-08-15T10:56:20.460Z,27.7
2017-08-15T10:57:22.591Z,27.7
2017-08-15T10:58:24.391Z,27.7
2017-08-15T10:59:26.521Z,27.7
2017-08-15T11:00:28.759Z,27.6
2017-08-15T11:01:30.230Z,27.6
2017-08-15T11:02:32.032Z,27.7
2017-08-15T11:03:33.486Z,27.7
2017-08-15T11:04:35.310Z,27.7
2017-08-15T11:05:37.111Z,27.7
2017-08-15T11:06:39.249Z,27.7
2017-08-15T11:07:40.799Z,27.7
2017-08-15T11:08:42.599Z,27.8
2017-08-15T11:09:43.722Z,27.7
2017-08-15T11:10:45.514Z,27.8
2017-08-15T11:11:46.636Z,27.9
2017-08-15T11:12:48.416Z,27.7
2017-08-15T11:13:50.217Z,27.8
2017-08-15T11:14:51.997Z,27.9
2017-08-15T11:15:53.801Z,27.8
2017-08-15T11:16:55.266Z,27.9
2017-08-15T11:17:57.070Z,27.9
2017-08-15T11:18:58.187Z,27.9
2017-08-15T11:20:00.315Z,27.9
2017-08-15T11:21:02.103Z,27.9
2017-08-15T11:22:03.890Z,27.9
2017-08-15T11:23:05.691Z,27.9
2017-08-15T11:24:07.491Z,28
2017-08-15T11:25:08.956Z,27.9
2017-08-15T11:26:11.089Z,27.9
2017-08-15T11:27:12.528Z,27.9
2017-08-15T11:28:14.045Z,27.9
2017-08-15T11:29:15.846Z,27.9
2017-08-15T11:30:17.647Z,27.9
2017-08-15T11:31:18.758Z,28
2017-08-15T11:32:20.234Z,27.9
2017-08-15T11:33:22.031Z,27.9
2017-08-15T11:34:24.164Z,28
2017-08-15T11:35:25.271Z,28
2017-08-15T11:36:27.081Z,28
2017-08-15T11:37:29.218Z,27.9
2017-08-15T11:38:30.689Z,27.9
2017-08-15T11:39:32.466Z,28
2017-08-15T11:40:34.596Z,28
2017-08-15T11:41:36.729Z,28
2017-08-15T11:42:38.194Z,28
2017-08-15T11:43:39.989Z,27.9
2017-08-15T11:44:42.121Z,28
2017-08-15T11:45:43.919Z,28
2017-08-15T11:46:46.053Z,27.9
2017-08-15T11:47:47.525Z,27.9
2017-08-15T11:48:49.659Z,27.9
2017-08-15T11:49:51.457Z,28
2017-08-15T11:50:53.262Z,28
2017-08-15T11:51:55.071Z,27.9
2017-08-15T11:52:56.544Z,27.9
2017-08-15T11:53:57.989Z,27.9
2017-08-15T11:55:00.126Z,28
2017-08-15T11:56:01.592Z,28
2017-08-15T11:57:03.723Z,28
2017-08-15T11:58:05.200Z,27.9
2017-08-15T11:59:06.341Z,28
2017-08-15T12:00:07.785Z,27.9
2017-08-15T12:01:09.918Z,28
2017-08-15T12:02:11.384Z,27.9
2017-08-15T12:03:13.188Z,27.9
2017-08-15T12:04:15.033Z,27.9
2017-08-15T12:05:16.837Z,28
2017-08-15T12:06:18.302Z,27.9
2017-08-15T12:07:20.434Z,27.9
2017-08-15T12:08:22.217Z,27.9
2017-08-15T12:09:24.015Z,27.9
2017-08-15T12:10:25.507Z,27.9
2017-08-15T12:11:27.640Z,28
2017-08-15T12:12:29.085Z,28
2017-08-15T12:13:30.863Z,27.9
2017-08-15T12:14:32.664Z,28
2017-08-15T12:15:34.130Z,28
2017-08-15T12:16:36.263Z,28
2017-08-15T12:17:37.712Z,28
2017-08-15T12:18:39.508Z,28
2017-08-15T12:19:41.638Z,28
2017-08-15T12:20:42.775Z,28
2017-08-15T12:21:44.578Z,28
2017-08-15T12:22:46.356Z,27.9
2017-08-15T12:23:48.488Z,28
2017-08-15T12:24:50.620Z,28.1
2017-08-15T12:25:52.084Z,28
2017-08-15T12:26:53.526Z,28
2017-08-15T12:27:55.329Z,28
2017-08-15T12:28:57.460Z,28.1
2017-08-15T12:29:58.925Z,28.1
2017-08-15T12:31:01.055Z,28.1
2017-08-15T12:32:03.191Z,28.1
2017-08-15T12:33:04.989Z,28.1
2017-08-15T12:34:07.120Z,28.1
2017-08-15T12:35:08.590Z,28.1
2017-08-15T12:36:10.061Z,28.1
2017-08-15T12:37:12.190Z,28.1
2017-08-15T12:38:13.988Z,28
2017-08-15T12:39:16.123Z,28.1
2017-08-15T12:40:17.923Z,28.1
2017-08-15T12:41:20.057Z,28.1
2017-08-15T12:42:21.868Z,28.1
2017-08-15T12:43:23.006Z,28.1
2017-08-15T12:44:25.142Z,28.1
2017-08-15T12:45:26.945Z,28.2
2017-08-15T12:46:29.083Z,28.1
2017-08-15T12:47:30.884Z,28.1
2017-08-15T12:48:32.361Z,28.2
2017-08-15T12:49:34.495Z,28.2
2017-08-15T12:50:36.624Z,28.2
2017-08-15T12:51:38.755Z,28.1
2017-08-15T12:52:40.561Z,28.1
2017-08-15T12:53:42.689Z,28.2
2017-08-15T12:54:44.137Z,28.2
2017-08-15T12:55:45.990Z,28.1
2017-08-15T12:56:47.787Z,28.2
2017-08-15T12:57:49.252Z,28.2
2017-08-15T12:58:51.031Z,28.3
2017-08-15T12:59:52.474Z,28.2
2017-08-15T13:00:54.661Z,28.2
2017-08-15T13:01:56.456Z,28.3
2017-08-15T13:02:58.264Z,28.2
2017-08-15T13:04:00.394Z,28.2
2017-08-15T13:05:02.176Z,28.2
2017-08-15T13:06:04.026Z,28.3
2017-08-15T13:07:05.828Z,28.2
2017-08-15T13:08:07.626Z,28.3
2017-08-15T13:09:09.407Z,28.3
2017-08-15T13:10:11.206Z,28.1
2017-08-15T13:11:13.341Z,28.2
2017-08-15T13:12:15.150Z,28.2
2017-08-15T13:13:17.283Z,28.2
2017-08-15T13:14:19.415Z,28.3
2017-08-15T13:15:21.545Z,28.2
2017-08-15T13:16:23.001Z,28.3
2017-08-15T13:17:24.799Z,28.2
2017-08-15T13:18:26.928Z,28.1
2017-08-15T13:19:28.724Z,28.2
2017-08-15T13:20:30.852Z,28.2
2017-08-15T13:21:31.967Z,28.2
2017-08-15T13:22:34.097Z,28.2
2017-08-15T13:23:35.892Z,28.2
2017-08-15T13:24:37.694Z,28.1
2017-08-15T13:25:39.825Z,28.2
2017-08-15T13:26:41.620Z,28.2
2017-08-15T13:27:43.064Z,28.1
2017-08-15T13:28:44.180Z,28.1
2017-08-15T13:29:45.986Z,28.1
2017-08-15T13:30:47.759Z,28.2
2017-08-15T13:31:49.555Z,28.2
2017-08-15T13:32:51.684Z,28.1
2017-08-15T13:33:53.465Z,28.1
2017-08-15T13:34:54.571Z,28.1
2017-08-15T13:35:56.355Z,28.1
2017-08-15T13:36:57.796Z,28.1
2017-08-15T13:37:59.594Z,28.1
2017-08-15T13:39:01.725Z,28.1
2017-08-15T13:40:03.856Z,28.1
2017-08-15T13:41:05.671Z,28.1
2017-08-15T13:42:07.792Z,28.2
2017-08-15T13:43:09.254Z,28.1
2017-08-15T13:44:11.389Z,28.1
2017-08-15T13:45:13.162Z,28.1
2017-08-15T13:46:15.291Z,28.1